sensor_id;sensor_type;location;lat;lon;timestamp;P1;durP1;ratioP1;P2;durP2;ratioP2
789;SDS011;378;48.844;9.156;2023-01-30T00:01:23;23.83;;;10.70;;
789;SDS011;378;48.844;9.156;2023-01-30T00:03:53;23.73;;;10.87;;
789;SDS011;378;48.844;9.156;2023-01-30T00:06:20;24.50;;;10.97;;
789;SDS011;378;48.844;9.156;2023-01-30T00:08:47;21.90;;;10.83;;
789;SDS011;378;48.844;9.156;2023-01-30T00:11:15;22.13;;;10.47;;
789;SDS011;378;48.844;9.156;2023-01-30T00:13:44;22.97;;;10.60;;
789;SDS011;378;48.844;9.156;2023-01-30T00:16:11;29.90;;;15.25;;
789;SDS011;378;48.844;9.156;2023-01-30T00:18:38;26.13;;;12.53;;
789;SDS011;378;48.844;9.156;2023-01-30T00:21:08;24.60;;;11.87;;
789;SDS011;378;48.844;9.156;2023-01-30T00:23:37;24.47;;;11.30;;
789;SDS011;378;48.844;9.156;2023-01-30T00:26:04;22.63;;;11.07;;
789;SDS011;378;48.844;9.156;2023-01-30T00:28:32;26.60;;;11.57;;
789;SDS011;378;48.844;9.156;2023-01-30T00:30:59;22.73;;;11.43;;
789;SDS011;378;48.844;9.156;2023-01-30T00:33:26;23.77;;;11.37;;
789;SDS011;378;48.844;9.156;2023-01-30T00:35:54;21.77;;;10.20;;
789;SDS011;378;48.844;9.156;2023-01-30T00:38:23;24.93;;;10.63;;
789;SDS011;378;48.844;9.156;2023-01-30T00:40:50;22.37;;;10.50;;
789;SDS011;378;48.844;9.156;2023-01-30T00:43:17;25.03;;;9.97;;
789;SDS011;378;48.844;9.156;2023-01-30T00:46:03;24.20;;;10.40;;
789;SDS011;378;48.844;9.156;2023-01-30T00:48:52;23.40;;;10.43;;
789;SDS011;378;48.844;9.156;2023-01-30T00:51:19;25.03;;;10.93;;
789;SDS011;378;48.844;9.156;2023-01-30T00:53:47;25.77;;;11.37;;
789;SDS011;378;48.844;9.156;2023-01-30T00:56:14;23.40;;;10.57;;
789;SDS011;378;48.844;9.156;2023-01-30T00:58:41;30.77;;;11.33;;
789;SDS011;378;48.844;9.156;2023-01-30T01:01:08;22.57;;;10.27;;
789;SDS011;378;48.844;9.156;2023-01-30T01:03:35;23.57;;;10.87;;
789;SDS011;378;48.844;9.156;2023-01-30T01:06:02;22.25;;;10.40;;
789;SDS011;378;48.844;9.156;2023-01-30T01:08:29;26.50;;;11.43;;
789;SDS011;378;48.844;9.156;2023-01-30T01:10:57;29.77;;;11.23;;
789;SDS011;378;48.844;9.156;2023-01-30T01:13:24;23.57;;;11.10;;
789;SDS011;378;48.844;9.156;2023-01-30T01:15:51;23.93;;;10.30;;
789;SDS011;378;48.844;9.156;2023-01-30T01:18:18;27.13;;;10.90;;
789;SDS011;378;48.844;9.156;2023-01-30T01:20:45;21.57;;;10.30;;
789;SDS011;378;48.844;9.156;2023-01-30T01:23:12;26.40;;;10.87;;
789;SDS011;378;48.844;9.156;2023-01-30T01:25:38;26.03;;;10.43;;
789;SDS011;378;48.844;9.156;2023-01-30T01:28:07;25.27;;;10.23;;
789;SDS011;378;48.844;9.156;2023-01-30T01:30:33;24.53;;;10.67;;
789;SDS011;378;48.844;9.156;2023-01-30T01:33:00;24.83;;;10.03;;
789;SDS011;378;48.844;9.156;2023-01-30T01:35:27;24.10;;;11.03;;
789;SDS011;378;48.844;9.156;2023-01-30T01:37:54;28.60;;;13.23;;
789;SDS011;378;48.844;9.156;2023-01-30T01:40:21;23.57;;;11.53;;
789;SDS011;378;48.844;9.156;2023-01-30T01:43:15;20.27;;;9.97;;
789;SDS011;378;48.844;9.156;2023-01-30T01:45:42;22.70;;;10.20;;
789;SDS011;378;48.844;9.156;2023-01-30T01:48:11;19.80;;;9.80;;
789;SDS011;378;48.844;9.156;2023-01-30T01:50:53;25.13;;;13.20;;
789;SDS011;378;48.844;9.156;2023-01-30T01:53:23;23.60;;;11.00;;
789;SDS011;378;48.844;9.156;2023-01-30T01:55:53;21.53;;;10.40;;
789;SDS011;378;48.844;9.156;2023-01-30T01:58:24;23.93;;;9.67;;
789;SDS011;378;48.844;9.156;2023-01-30T02:00:54;20.07;;;9.67;;
789;SDS011;378;48.844;9.156;2023-01-30T02:03:24;24.47;;;11.20;;
789;SDS011;378;48.844;9.156;2023-01-30T02:05:54;21.53;;;10.20;;
789;SDS011;378;48.844;9.156;2023-01-30T02:08:24;24.10;;;10.77;;
789;SDS011;378;48.844;9.156;2023-01-30T02:10:56;26.93;;;11.87;;
789;SDS011;378;48.844;9.156;2023-01-30T02:13:26;25.73;;;11.43;;
789;SDS011;378;48.844;9.156;2023-01-30T02:15:54;24.83;;;11.80;;
789;SDS011;378;48.844;9.156;2023-01-30T02:18:23;28.90;;;12.63;;
789;SDS011;378;48.844;9.156;2023-01-30T02:20:56;25.00;;;11.77;;
789;SDS011;378;48.844;9.156;2023-01-30T02:27:16;25.60;;;11.70;;
789;SDS011;378;48.844;9.156;2023-01-30T02:30:09;26.40;;;12.03;;
789;SDS011;378;48.844;9.156;2023-01-30T02:32:53;24.33;;;10.57;;
789;SDS011;378;48.844;9.156;2023-01-30T02:35:30;25.83;;;11.10;;
789;SDS011;378;48.844;9.156;2023-01-30T02:38:05;24.97;;;11.10;;
789;SDS011;378;48.844;9.156;2023-01-30T02:40:43;21.47;;;10.50;;
789;SDS011;378;48.844;9.156;2023-01-30T02:43:19;31.63;;;15.20;;
789;SDS011;378;48.844;9.156;2023-01-30T02:45:55;30.77;;;13.40;;
789;SDS011;378;48.844;9.156;2023-01-30T02:48:28;33.33;;;12.23;;
789;SDS011;378;48.844;9.156;2023-01-30T02:51:00;33.60;;;12.60;;
789;SDS011;378;48.844;9.156;2023-01-30T02:53:31;26.70;;;11.70;;
789;SDS011;378;48.844;9.156;2023-01-30T02:55:58;26.80;;;11.50;;
789;SDS011;378;48.844;9.156;2023-01-30T02:58:25;33.10;;;17.17;;
789;SDS011;378;48.844;9.156;2023-01-30T03:03:58;25.03;;;11.60;;
789;SDS011;378;48.844;9.156;2023-01-30T03:07:01;26.60;;;11.83;;
789;SDS011;378;48.844;9.156;2023-01-30T03:09:41;28.10;;;11.63;;
789;SDS011;378;48.844;9.156;2023-01-30T03:12:16;22.77;;;10.30;;
789;SDS011;378;48.844;9.156;2023-01-30T03:14:48;25.10;;;11.80;;
789;SDS011;378;48.844;9.156;2023-01-30T03:17:19;23.53;;;11.03;;
789;SDS011;378;48.844;9.156;2023-01-30T03:19:50;24.47;;;11.23;;
789;SDS011;378;48.844;9.156;2023-01-30T03:22:19;22.63;;;10.30;;
789;SDS011;378;48.844;9.156;2023-01-30T03:24:46;21.77;;;9.63;;
789;SDS011;378;48.844;9.156;2023-01-30T03:27:14;24.17;;;10.63;;
789;SDS011;378;48.844;9.156;2023-01-30T03:29:41;25.33;;;10.43;;
789;SDS011;378;48.844;9.156;2023-01-30T03:32:08;22.30;;;10.33;;
789;SDS011;378;48.844;9.156;2023-01-30T03:34:35;24.27;;;10.53;;
789;SDS011;378;48.844;9.156;2023-01-30T03:37:03;19.03;;;9.47;;
789;SDS011;378;48.844;9.156;2023-01-30T03:39:30;22.33;;;9.47;;
789;SDS011;378;48.844;9.156;2023-01-30T03:41:57;18.87;;;9.10;;
789;SDS011;378;48.844;9.156;2023-01-30T03:44:24;18.67;;;9.17;;
789;SDS011;378;48.844;9.156;2023-01-30T03:46:50;20.87;;;8.80;;
789;SDS011;378;48.844;9.156;2023-01-30T03:49:17;22.73;;;11.87;;
789;SDS011;378;48.844;9.156;2023-01-30T03:51:44;21.13;;;9.33;;
789;SDS011;378;48.844;9.156;2023-01-30T03:54:12;17.43;;;8.80;;
789;SDS011;378;48.844;9.156;2023-01-30T03:56:39;17.70;;;8.97;;
789;SDS011;378;48.844;9.156;2023-01-30T03:59:06;18.23;;;8.33;;
789;SDS011;378;48.844;9.156;2023-01-30T04:01:33;20.47;;;8.27;;
789;SDS011;378;48.844;9.156;2023-01-30T04:04:00;19.93;;;8.40;;
789;SDS011;378;48.844;9.156;2023-01-30T04:06:27;16.30;;;7.93;;
789;SDS011;378;48.844;9.156;2023-01-30T04:08:53;19.03;;;8.60;;
789;SDS011;378;48.844;9.156;2023-01-30T04:11:22;16.97;;;8.60;;
789;SDS011;378;48.844;9.156;2023-01-30T04:13:48;18.30;;;8.67;;
789;SDS011;378;48.844;9.156;2023-01-30T04:16:16;16.23;;;7.63;;
789;SDS011;378;48.844;9.156;2023-01-30T04:18:44;18.85;;;9.88;;
789;SDS011;378;48.844;9.156;2023-01-30T04:21:11;17.20;;;8.30;;
789;SDS011;378;48.844;9.156;2023-01-30T04:23:39;17.93;;;8.00;;
789;SDS011;378;48.844;9.156;2023-01-30T04:26:06;15.40;;;7.57;;
789;SDS011;378;48.844;9.156;2023-01-30T04:28:34;15.57;;;8.07;;
789;SDS011;378;48.844;9.156;2023-01-30T04:31:02;19.15;;;9.60;;
789;SDS011;378;48.844;9.156;2023-01-30T04:33:29;18.37;;;8.10;;
789;SDS011;378;48.844;9.156;2023-01-30T04:35:59;14.27;;;7.57;;
789;SDS011;378;48.844;9.156;2023-01-30T04:38:27;16.80;;;7.80;;
789;SDS011;378;48.844;9.156;2023-01-30T04:40:55;13.47;;;6.93;;
789;SDS011;378;48.844;9.156;2023-01-30T04:43:23;12.23;;;6.67;;
789;SDS011;378;48.844;9.156;2023-01-30T04:45:52;14.67;;;7.17;;
789;SDS011;378;48.844;9.156;2023-01-30T04:48:19;14.13;;;6.90;;
789;SDS011;378;48.844;9.156;2023-01-30T04:50:48;15.50;;;7.17;;
789;SDS011;378;48.844;9.156;2023-01-30T04:53:16;14.37;;;6.97;;
789;SDS011;378;48.844;9.156;2023-01-30T04:55:45;17.27;;;7.23;;
789;SDS011;378;48.844;9.156;2023-01-30T04:58:12;17.47;;;7.23;;
789;SDS011;378;48.844;9.156;2023-01-30T05:00:39;14.57;;;6.87;;
789;SDS011;378;48.844;9.156;2023-01-30T05:03:07;15.43;;;8.60;;
789;SDS011;378;48.844;9.156;2023-01-30T05:05:34;13.87;;;7.00;;
789;SDS011;378;48.844;9.156;2023-01-30T05:08:01;13.23;;;6.50;;
789;SDS011;378;48.844;9.156;2023-01-30T05:10:28;13.03;;;6.33;;
789;SDS011;378;48.844;9.156;2023-01-30T05:12:54;11.43;;;5.97;;
789;SDS011;378;48.844;9.156;2023-01-30T05:15:21;13.53;;;6.53;;
789;SDS011;378;48.844;9.156;2023-01-30T05:17:48;11.73;;;6.07;;
789;SDS011;378;48.844;9.156;2023-01-30T05:20:16;11.90;;;6.40;;
789;SDS011;378;48.844;9.156;2023-01-30T05:22:43;13.30;;;6.32;;
789;SDS011;378;48.844;9.156;2023-01-30T05:25:10;11.67;;;5.97;;
789;SDS011;378;48.844;9.156;2023-01-30T05:27:37;11.57;;;6.20;;
789;SDS011;378;48.844;9.156;2023-01-30T05:30:04;12.93;;;6.30;;
789;SDS011;378;48.844;9.156;2023-01-30T05:32:32;12.93;;;6.23;;
789;SDS011;378;48.844;9.156;2023-01-30T05:34:59;13.93;;;7.95;;
789;SDS011;378;48.844;9.156;2023-01-30T05:37:27;12.03;;;6.73;;
789;SDS011;378;48.844;9.156;2023-01-30T05:39:54;12.67;;;6.47;;
789;SDS011;378;48.844;9.156;2023-01-30T05:42:21;17.63;;;6.67;;
789;SDS011;378;48.844;9.156;2023-01-30T05:44:47;11.50;;;6.00;;
789;SDS011;378;48.844;9.156;2023-01-30T05:47:14;13.83;;;6.50;;
789;SDS011;378;48.844;9.156;2023-01-30T05:49:41;12.53;;;6.60;;
789;SDS011;378;48.844;9.156;2023-01-30T05:52:08;11.93;;;6.30;;
789;SDS011;378;48.844;9.156;2023-01-30T05:54:36;11.80;;;6.57;;
789;SDS011;378;48.844;9.156;2023-01-30T05:57:03;13.00;;;6.30;;
789;SDS011;378;48.844;9.156;2023-01-30T05:59:30;13.00;;;6.07;;
789;SDS011;378;48.844;9.156;2023-01-30T06:01:56;15.30;;;6.30;;
789;SDS011;378;48.844;9.156;2023-01-30T06:04:23;11.50;;;6.10;;
789;SDS011;378;48.844;9.156;2023-01-30T06:06:50;17.70;;;8.33;;
789;SDS011;378;48.844;9.156;2023-01-30T06:09:17;11.53;;;6.20;;
789;SDS011;378;48.844;9.156;2023-01-30T06:11:45;13.20;;;6.80;;
789;SDS011;378;48.844;9.156;2023-01-30T06:14:12;15.33;;;6.80;;
789;SDS011;378;48.844;9.156;2023-01-30T06:16:38;11.17;;;5.77;;
789;SDS011;378;48.844;9.156;2023-01-30T06:19:06;9.73;;;5.83;;
789;SDS011;378;48.844;9.156;2023-01-30T06:21:33;11.60;;;6.60;;
789;SDS011;378;48.844;9.156;2023-01-30T06:24:00;11.70;;;6.83;;
789;SDS011;378;48.844;9.156;2023-01-30T06:26:27;14.43;;;6.30;;
789;SDS011;378;48.844;9.156;2023-01-30T06:28:55;14.27;;;7.28;;
789;SDS011;378;48.844;9.156;2023-01-30T06:31:22;14.67;;;6.53;;
789;SDS011;378;48.844;9.156;2023-01-30T06:33:49;11.87;;;6.17;;
789;SDS011;378;48.844;9.156;2023-01-30T06:36:16;15.53;;;6.60;;
789;SDS011;378;48.844;9.156;2023-01-30T06:38:43;10.50;;;5.63;;
789;SDS011;378;48.844;9.156;2023-01-30T06:41:09;12.83;;;6.70;;
789;SDS011;378;48.844;9.156;2023-01-30T06:43:36;14.33;;;6.73;;
789;SDS011;378;48.844;9.156;2023-01-30T06:46:04;15.77;;;7.10;;
789;SDS011;378;48.844;9.156;2023-01-30T06:48:31;13.37;;;6.37;;
789;SDS011;378;48.844;9.156;2023-01-30T06:50:58;13.10;;;5.93;;
789;SDS011;378;48.844;9.156;2023-01-30T06:53:25;16.83;;;6.63;;
789;SDS011;378;48.844;9.156;2023-01-30T06:55:54;14.67;;;6.63;;
789;SDS011;378;48.844;9.156;2023-01-30T06:58:21;12.30;;;6.30;;
789;SDS011;378;48.844;9.156;2023-01-30T07:00:48;14.20;;;6.73;;
789;SDS011;378;48.844;9.156;2023-01-30T07:03:17;13.95;;;7.25;;
789;SDS011;378;48.844;9.156;2023-01-30T07:05:44;12.00;;;6.43;;
789;SDS011;378;48.844;9.156;2023-01-30T07:08:12;12.17;;;6.57;;
789;SDS011;378;48.844;9.156;2023-01-30T07:10:41;12.80;;;6.33;;
789;SDS011;378;48.844;9.156;2023-01-30T07:13:08;10.93;;;5.30;;
789;SDS011;378;48.844;9.156;2023-01-30T07:15:35;13.20;;;6.20;;
789;SDS011;378;48.844;9.156;2023-01-30T07:18:02;12.23;;;6.00;;
789;SDS011;378;48.844;9.156;2023-01-30T07:20:30;13.40;;;6.40;;
789;SDS011;378;48.844;9.156;2023-01-30T07:22:57;13.07;;;5.77;;
789;SDS011;378;48.844;9.156;2023-01-30T07:25:25;12.30;;;6.33;;
789;SDS011;378;48.844;9.156;2023-01-30T07:27:55;13.67;;;6.20;;
789;SDS011;378;48.844;9.156;2023-01-30T07:30:23;10.53;;;5.63;;
789;SDS011;378;48.844;9.156;2023-01-30T07:32:50;12.80;;;6.57;;
789;SDS011;378;48.844;9.156;2023-01-30T07:35:18;14.75;;;7.50;;
789;SDS011;378;48.844;9.156;2023-01-30T07:37:47;13.60;;;7.30;;
789;SDS011;378;48.844;9.156;2023-01-30T07:40:15;13.43;;;6.53;;
789;SDS011;378;48.844;9.156;2023-01-30T07:42:43;11.00;;;5.77;;
789;SDS011;378;48.844;9.156;2023-01-30T07:45:20;11.70;;;5.83;;
789;SDS011;378;48.844;9.156;2023-01-30T07:47:46;13.07;;;6.80;;
789;SDS011;378;48.844;9.156;2023-01-30T07:50:13;11.03;;;5.57;;
789;SDS011;378;48.844;9.156;2023-01-30T07:52:40;12.83;;;6.03;;
789;SDS011;378;48.844;9.156;2023-01-30T07:55:09;13.10;;;5.80;;
789;SDS011;378;48.844;9.156;2023-01-30T07:57:35;12.77;;;5.90;;
789;SDS011;378;48.844;9.156;2023-01-30T08:00:03;11.77;;;5.60;;
789;SDS011;378;48.844;9.156;2023-01-30T08:02:30;13.90;;;6.73;;
789;SDS011;378;48.844;9.156;2023-01-30T08:04:57;12.87;;;5.80;;
789;SDS011;378;48.844;9.156;2023-01-30T08:07:24;13.90;;;5.87;;
789;SDS011;378;48.844;9.156;2023-01-30T08:09:51;12.93;;;6.37;;
789;SDS011;378;48.844;9.156;2023-01-30T08:12:19;13.73;;;7.40;;
789;SDS011;378;48.844;9.156;2023-01-30T08:14:46;11.57;;;6.00;;
789;SDS011;378;48.844;9.156;2023-01-30T08:17:13;12.73;;;6.00;;
789;SDS011;378;48.844;9.156;2023-01-30T08:19:39;11.07;;;5.47;;
789;SDS011;378;48.844;9.156;2023-01-30T08:22:06;12.47;;;5.97;;
789;SDS011;378;48.844;9.156;2023-01-30T08:24:33;12.77;;;6.83;;
789;SDS011;378;48.844;9.156;2023-01-30T08:27:00;13.00;;;6.27;;
789;SDS011;378;48.844;9.156;2023-01-30T08:29:28;12.13;;;5.93;;
789;SDS011;378;48.844;9.156;2023-01-30T08:31:56;12.87;;;5.87;;
789;SDS011;378;48.844;9.156;2023-01-30T08:34:23;13.03;;;6.30;;
789;SDS011;378;48.844;9.156;2023-01-30T08:36:50;12.07;;;6.07;;
789;SDS011;378;48.844;9.156;2023-01-30T08:39:17;11.03;;;6.30;;
789;SDS011;378;48.844;9.156;2023-01-30T08:41:44;11.03;;;5.50;;
789;SDS011;378;48.844;9.156;2023-01-30T08:44:11;12.33;;;5.57;;
789;SDS011;378;48.844;9.156;2023-01-30T08:46:39;9.88;;;5.22;;
789;SDS011;378;48.844;9.156;2023-01-30T08:49:06;13.23;;;5.40;;
789;SDS011;378;48.844;9.156;2023-01-30T08:51:33;9.70;;;5.30;;
789;SDS011;378;48.844;9.156;2023-01-30T08:54:00;7.60;;;4.43;;
789;SDS011;378;48.844;9.156;2023-01-30T08:56:27;8.40;;;4.88;;
789;SDS011;378;48.844;9.156;2023-01-30T08:58:53;6.68;;;3.78;;
789;SDS011;378;48.844;9.156;2023-01-30T09:01:20;7.00;;;3.90;;
789;SDS011;378;48.844;9.156;2023-01-30T09:03:48;7.85;;;4.15;;
789;SDS011;378;48.844;9.156;2023-01-30T09:06:15;6.80;;;3.72;;
789;SDS011;378;48.844;9.156;2023-01-30T09:08:42;8.48;;;4.07;;
789;SDS011;378;48.844;9.156;2023-01-30T09:11:09;8.05;;;3.72;;
789;SDS011;378;48.844;9.156;2023-01-30T09:13:37;7.13;;;3.22;;
789;SDS011;378;48.844;9.156;2023-01-30T09:16:07;5.20;;;3.38;;
789;SDS011;378;48.844;9.156;2023-01-30T09:18:36;6.63;;;3.40;;
789;SDS011;378;48.844;9.156;2023-01-30T09:21:05;6.05;;;3.13;;
789;SDS011;378;48.844;9.156;2023-01-30T09:23:34;7.25;;;3.30;;
789;SDS011;378;48.844;9.156;2023-01-30T09:26:02;8.35;;;3.38;;
789;SDS011;378;48.844;9.156;2023-01-30T09:28:30;6.20;;;3.20;;
789;SDS011;378;48.844;9.156;2023-01-30T09:30:57;4.85;;;3.30;;
789;SDS011;378;48.844;9.156;2023-01-30T09:33:24;7.97;;;4.00;;
789;SDS011;378;48.844;9.156;2023-01-30T09:35:51;7.50;;;4.28;;
789;SDS011;378;48.844;9.156;2023-01-30T09:38:19;6.50;;;3.50;;
789;SDS011;378;48.844;9.156;2023-01-30T09:40:50;8.70;;;3.95;;
789;SDS011;378;48.844;9.156;2023-01-30T09:43:29;7.27;;;4.07;;
789;SDS011;378;48.844;9.156;2023-01-30T09:46:06;6.57;;;3.37;;
789;SDS011;378;48.844;9.156;2023-01-30T09:48:43;6.45;;;3.83;;
789;SDS011;378;48.844;9.156;2023-01-30T09:51:27;7.37;;;3.70;;
789;SDS011;378;48.844;9.156;2023-01-30T09:54:04;6.40;;;3.60;;
789;SDS011;378;48.844;9.156;2023-01-30T09:56:44;8.40;;;3.97;;
789;SDS011;378;48.844;9.156;2023-01-30T09:59:14;7.97;;;4.20;;
789;SDS011;378;48.844;9.156;2023-01-30T10:01:47;9.80;;;4.53;;
789;SDS011;378;48.844;9.156;2023-01-30T10:04:22;10.60;;;4.07;;
789;SDS011;378;48.844;9.156;2023-01-30T10:06:57;6.30;;;4.00;;
789;SDS011;378;48.844;9.156;2023-01-30T10:09:35;8.20;;;4.13;;
789;SDS011;378;48.844;9.156;2023-01-30T10:12:22;7.63;;;3.90;;
789;SDS011;378;48.844;9.156;2023-01-30T10:15:11;7.88;;;3.67;;
789;SDS011;378;48.844;9.156;2023-01-30T10:17:48;6.30;;;3.63;;
789;SDS011;378;48.844;9.156;2023-01-30T10:20:28;6.65;;;3.63;;
789;SDS011;378;48.844;9.156;2023-01-30T10:23:08;11.13;;;3.10;;
789;SDS011;378;48.844;9.156;2023-01-30T10:26:00;6.00;;;3.13;;
789;SDS011;378;48.844;9.156;2023-01-30T10:28:31;6.10;;;3.28;;
789;SDS011;378;48.844;9.156;2023-01-30T10:31:01;5.77;;;3.33;;
789;SDS011;378;48.844;9.156;2023-01-30T10:33:31;6.33;;;3.30;;
789;SDS011;378;48.844;9.156;2023-01-30T10:36:03;6.60;;;3.53;;
789;SDS011;378;48.844;9.156;2023-01-30T10:38:34;7.37;;;3.83;;
789;SDS011;378;48.844;9.156;2023-01-30T10:41:09;7.60;;;3.38;;
789;SDS011;378;48.844;9.156;2023-01-30T10:43:46;6.47;;;3.77;;
789;SDS011;378;48.844;9.156;2023-01-30T10:46:25;5.10;;;2.80;;
789;SDS011;378;48.844;9.156;2023-01-30T10:49:03;4.57;;;3.08;;
789;SDS011;378;48.844;9.156;2023-01-30T10:51:39;10.27;;;3.33;;
789;SDS011;378;48.844;9.156;2023-01-30T10:54:12;6.15;;;2.80;;
789;SDS011;378;48.844;9.156;2023-01-30T10:56:45;4.43;;;2.53;;
789;SDS011;378;48.844;9.156;2023-01-30T10:59:21;4.37;;;2.47;;
789;SDS011;378;48.844;9.156;2023-01-30T11:01:53;3.93;;;2.17;;
789;SDS011;378;48.844;9.156;2023-01-30T11:04:27;6.60;;;2.47;;
789;SDS011;378;48.844;9.156;2023-01-30T11:06:56;2.77;;;1.93;;
789;SDS011;378;48.844;9.156;2023-01-30T11:09:36;7.93;;;2.03;;
789;SDS011;378;48.844;9.156;2023-01-30T11:12:05;5.17;;;2.00;;
789;SDS011;378;48.844;9.156;2023-01-30T11:17:18;2.55;;;1.90;;
789;SDS011;378;48.844;9.156;2023-01-30T11:19:52;3.58;;;2.05;;
789;SDS011;378;48.844;9.156;2023-01-30T11:22:20;3.30;;;2.35;;
789;SDS011;378;48.844;9.156;2023-01-30T11:24:50;3.42;;;2.33;;
789;SDS011;378;48.844;9.156;2023-01-30T11:27:28;3.05;;;1.98;;
789;SDS011;378;48.844;9.156;2023-01-30T11:30:04;5.10;;;2.30;;
789;SDS011;378;48.844;9.156;2023-01-30T11:32:32;4.28;;;2.10;;
789;SDS011;378;48.844;9.156;2023-01-30T11:35:06;5.20;;;2.53;;
789;SDS011;378;48.844;9.156;2023-01-30T11:38:09;4.68;;;3.13;;
789;SDS011;378;48.844;9.156;2023-01-30T11:40:38;3.83;;;2.33;;
789;SDS011;378;48.844;9.156;2023-01-30T11:43:10;5.23;;;2.60;;
789;SDS011;378;48.844;9.156;2023-01-30T11:45:39;4.53;;;2.60;;
789;SDS011;378;48.844;9.156;2023-01-30T11:48:11;5.20;;;2.67;;
789;SDS011;378;48.844;9.156;2023-01-30T11:50:41;7.90;;;3.70;;
789;SDS011;378;48.844;9.156;2023-01-30T11:53:13;5.53;;;3.17;;
789;SDS011;378;48.844;9.156;2023-01-30T11:55:45;6.70;;;3.23;;
789;SDS011;378;48.844;9.156;2023-01-30T11:58:13;9.00;;;4.27;;
789;SDS011;378;48.844;9.156;2023-01-30T12:00:41;8.73;;;4.50;;
789;SDS011;378;48.844;9.156;2023-01-30T12:03:13;7.77;;;4.03;;
789;SDS011;378;48.844;9.156;2023-01-30T12:05:44;9.60;;;5.23;;
789;SDS011;378;48.844;9.156;2023-01-30T12:08:19;7.83;;;3.87;;
789;SDS011;378;48.844;9.156;2023-01-30T12:10:50;5.90;;;3.40;;
789;SDS011;378;48.844;9.156;2023-01-30T12:13:21;6.70;;;4.07;;
789;SDS011;378;48.844;9.156;2023-01-30T12:15:55;7.17;;;3.80;;
789;SDS011;378;48.844;9.156;2023-01-30T12:18:30;4.87;;;2.97;;
789;SDS011;378;48.844;9.156;2023-01-30T12:21:02;8.60;;;4.28;;
789;SDS011;378;48.844;9.156;2023-01-30T12:23:37;6.50;;;3.53;;
789;SDS011;378;48.844;9.156;2023-01-30T12:26:08;7.37;;;3.43;;
789;SDS011;378;48.844;9.156;2023-01-30T12:28:40;6.80;;;4.03;;
789;SDS011;378;48.844;9.156;2023-01-30T12:31:12;8.70;;;4.20;;
789;SDS011;378;48.844;9.156;2023-01-30T12:33:44;6.50;;;4.07;;
789;SDS011;378;48.844;9.156;2023-01-30T12:36:15;7.07;;;3.97;;
789;SDS011;378;48.844;9.156;2023-01-30T12:39:04;6.73;;;3.83;;
789;SDS011;378;48.844;9.156;2023-01-30T12:41:51;10.73;;;4.10;;
789;SDS011;378;48.844;9.156;2023-01-30T12:44:36;7.07;;;3.60;;
789;SDS011;378;48.844;9.156;2023-01-30T12:47:22;8.20;;;3.93;;
789;SDS011;378;48.844;9.156;2023-01-30T12:50:19;8.33;;;4.17;;
789;SDS011;378;48.844;9.156;2023-01-30T12:52:55;6.60;;;3.77;;
789;SDS011;378;48.844;9.156;2023-01-30T12:55:34;7.07;;;3.65;;
789;SDS011;378;48.844;9.156;2023-01-30T12:58:09;6.20;;;3.30;;
789;SDS011;378;48.844;9.156;2023-01-30T13:00:48;7.90;;;2.97;;
789;SDS011;378;48.844;9.156;2023-01-30T13:03:26;6.67;;;3.23;;
789;SDS011;378;48.844;9.156;2023-01-30T13:06:00;5.30;;;3.05;;
789;SDS011;378;48.844;9.156;2023-01-30T13:08:37;6.25;;;2.60;;
789;SDS011;378;48.844;9.156;2023-01-30T13:11:15;4.35;;;2.65;;
789;SDS011;378;48.844;9.156;2023-01-30T13:13:54;8.55;;;2.85;;
789;SDS011;378;48.844;9.156;2023-01-30T13:16:31;6.05;;;2.95;;
789;SDS011;378;48.844;9.156;2023-01-30T13:19:04;3.83;;;2.28;;
789;SDS011;378;48.844;9.156;2023-01-30T13:21:39;3.10;;;1.60;;
789;SDS011;378;48.844;9.156;2023-01-30T13:24:13;2.85;;;1.33;;
789;SDS011;378;48.844;9.156;2023-01-30T13:26:46;4.28;;;1.50;;
789;SDS011;378;48.844;9.156;2023-01-30T13:29:17;0.90;;;0.90;;
789;SDS011;378;48.844;9.156;2023-01-30T13:31:52;1.70;;;1.10;;
789;SDS011;378;48.844;9.156;2023-01-30T13:34:24;1.35;;;1.10;;
789;SDS011;378;48.844;9.156;2023-01-30T13:36:55;1.93;;;1.10;;
789;SDS011;378;48.844;9.156;2023-01-30T13:39:30;2.40;;;1.47;;
789;SDS011;378;48.844;9.156;2023-01-30T13:42:01;1.45;;;1.20;;
789;SDS011;378;48.844;9.156;2023-01-30T13:44:37;2.17;;;1.53;;
789;SDS011;378;48.844;9.156;2023-01-30T13:47:13;2.58;;;2.13;;
789;SDS011;378;48.844;9.156;2023-01-30T13:49:50;3.85;;;2.03;;
789;SDS011;378;48.844;9.156;2023-01-30T13:52:26;3.60;;;1.90;;
789;SDS011;378;48.844;9.156;2023-01-30T13:54:59;4.78;;;2.70;;
789;SDS011;378;48.844;9.156;2023-01-30T13:57:36;3.90;;;2.50;;
789;SDS011;378;48.844;9.156;2023-01-30T14:00:19;6.78;;;2.85;;
789;SDS011;378;48.844;9.156;2023-01-30T14:03:14;4.53;;;2.10;;
789;SDS011;378;48.844;9.156;2023-01-30T14:06:01;3.10;;;2.15;;
789;SDS011;378;48.844;9.156;2023-01-30T14:08:51;2.97;;;1.88;;
789;SDS011;378;48.844;9.156;2023-01-30T14:11:27;3.25;;;2.00;;
789;SDS011;378;48.844;9.156;2023-01-30T14:13:59;2.72;;;1.95;;
789;SDS011;378;48.844;9.156;2023-01-30T14:16:38;3.55;;;2.30;;
789;SDS011;378;48.844;9.156;2023-01-30T14:19:19;3.90;;;2.33;;
789;SDS011;378;48.844;9.156;2023-01-30T14:22:03;3.10;;;1.80;;
789;SDS011;378;48.844;9.156;2023-01-30T14:24:43;5.13;;;2.25;;
789;SDS011;378;48.844;9.156;2023-01-30T14:27:23;3.30;;;1.95;;
789;SDS011;378;48.844;9.156;2023-01-30T14:29:56;2.88;;;1.58;;
789;SDS011;378;48.844;9.156;2023-01-30T14:32:34;2.35;;;1.88;;
789;SDS011;378;48.844;9.156;2023-01-30T14:35:25;2.83;;;1.80;;
789;SDS011;378;48.844;9.156;2023-01-30T14:40:48;5.93;;;2.17;;
789;SDS011;378;48.844;9.156;2023-01-30T14:43:48;2.20;;;1.67;;
789;SDS011;378;48.844;9.156;2023-01-30T14:46:39;4.10;;;2.10;;
789;SDS011;378;48.844;9.156;2023-01-30T14:51:56;3.42;;;2.30;;
789;SDS011;378;48.844;9.156;2023-01-30T14:54:38;4.43;;;2.30;;
789;SDS011;378;48.844;9.156;2023-01-30T14:57:15;3.88;;;2.30;;
789;SDS011;378;48.844;9.156;2023-01-30T14:59:49;7.10;;;2.50;;
789;SDS011;378;48.844;9.156;2023-01-30T15:02:21;4.50;;;2.50;;
789;SDS011;378;48.844;9.156;2023-01-30T15:04:54;3.17;;;2.22;;
789;SDS011;378;48.844;9.156;2023-01-30T15:07:28;3.83;;;2.28;;
789;SDS011;378;48.844;9.156;2023-01-30T15:09:57;6.97;;;2.63;;
789;SDS011;378;48.844;9.156;2023-01-30T15:15:43;7.28;;;2.53;;
789;SDS011;378;48.844;9.156;2023-01-30T15:18:20;6.43;;;3.58;;
789;SDS011;378;48.844;9.156;2023-01-30T15:21:07;4.75;;;3.10;;
789;SDS011;378;48.844;9.156;2023-01-30T15:23:56;5.88;;;3.28;;
789;SDS011;378;48.844;9.156;2023-01-30T15:26:36;5.40;;;3.15;;
789;SDS011;378;48.844;9.156;2023-01-30T15:29:23;5.70;;;3.35;;
789;SDS011;378;48.844;9.156;2023-01-30T15:31:58;10.43;;;3.47;;
789;SDS011;378;48.844;9.156;2023-01-30T15:34:26;7.90;;;3.60;;
789;SDS011;378;48.844;9.156;2023-01-30T15:36:54;6.45;;;3.47;;
789;SDS011;378;48.844;9.156;2023-01-30T15:39:23;8.23;;;3.42;;
789;SDS011;378;48.844;9.156;2023-01-30T15:41:51;7.07;;;3.47;;
789;SDS011;378;48.844;9.156;2023-01-30T15:47:21;5.85;;;3.35;;
789;SDS011;378;48.844;9.156;2023-01-30T15:50:00;6.45;;;3.28;;
789;SDS011;378;48.844;9.156;2023-01-30T15:52:35;9.23;;;4.00;;
789;SDS011;378;48.844;9.156;2023-01-30T15:55:12;5.82;;;3.22;;
789;SDS011;378;48.844;9.156;2023-01-30T15:57:42;5.97;;;3.08;;
789;SDS011;378;48.844;9.156;2023-01-30T16:00:17;10.10;;;4.00;;
789;SDS011;378;48.844;9.156;2023-01-30T16:02:49;5.60;;;3.05;;
789;SDS011;378;48.844;9.156;2023-01-30T16:05:17;8.40;;;3.33;;
789;SDS011;378;48.844;9.156;2023-01-30T16:07:46;8.23;;;4.00;;
789;SDS011;378;48.844;9.156;2023-01-30T16:10:16;8.07;;;3.57;;
789;SDS011;378;48.844;9.156;2023-01-30T16:12:45;10.03;;;3.87;;
789;SDS011;378;48.844;9.156;2023-01-30T16:15:16;8.73;;;4.05;;
789;SDS011;378;48.844;9.156;2023-01-30T16:17:56;10.37;;;3.77;;
789;SDS011;378;48.844;9.156;2023-01-30T16:20:26;7.20;;;4.07;;